sensor_id;sensor_type;location;lat;lon;timestamp;P1;durP1;ratioP1;P2;durP2;ratioP2
24517;SDS011;12678;51.336;12.406;2022-11-18T00:01:30;17.08;;;7.70;;
24517;SDS011;12678;51.336;12.406;2022-11-18T00:03:56;14.55;;;7.25;;
24517;SDS011;12678;51.336;12.406;2022-11-18T00:06:23;14.15;;;7.50;;
24517;SDS011;12678;51.336;12.406;2022-11-18T00:08:50;16.65;;;7.60;;
24517;SDS011;12678;51.336;12.406;2022-11-18T00:11:18;15.18;;;7.78;;
24517;SDS011;12678;51.336;12.406;2022-11-18T00:14:05;16.50;;;7.68;;
24517;SDS011;12678;51.336;12.406;2022-11-18T00:16:45;14.00;;;7.88;;
24517;SDS011;12678;51.336;12.406;2022-11-18T00:19:12;15.63;;;7.40;;
24517;SDS011;12678;51.336;12.406;2022-11-18T00:21:38;16.60;;;8.05;;
24517;SDS011;12678;51.336;12.406;2022-11-18T00:24:04;15.25;;;7.32;;
24517;SDS011;12678;51.336;12.406;2022-11-18T00:26:30;18.25;;;8.13;;
24517;SDS011;12678;51.336;12.406;2022-11-18T00:28:56;15.00;;;7.63;;
24517;SDS011;12678;51.336;12.406;2022-11-18T00:31:21;15.20;;;7.82;;
24517;SDS011;12678;51.336;12.406;2022-11-18T00:33:47;19.02;;;8.40;;
24517;SDS011;12678;51.336;12.406;2022-11-18T00:36:12;16.70;;;7.65;;
24517;SDS011;12678;51.336;12.406;2022-11-18T00:38:38;18.17;;;8.82;;
24517;SDS011;12678;51.336;12.406;2022-11-18T00:41:06;19.75;;;9.40;;
24517;SDS011;12678;51.336;12.406;2022-11-18T00:43:33;14.35;;;8.10;;
24517;SDS011;12678;51.336;12.406;2022-11-18T00:45:59;19.45;;;8.32;;
24517;SDS011;12678;51.336;12.406;2022-11-18T00:48:25;20.50;;;8.60;;
24517;SDS011;12678;51.336;12.406;2022-11-18T00:50:51;18.17;;;9.32;;
24517;SDS011;12678;51.336;12.406;2022-11-18T00:53:19;20.00;;;9.15;;
24517;SDS011;12678;51.336;12.406;2022-11-18T00:55:46;19.63;;;9.20;;
24517;SDS011;12678;51.336;12.406;2022-11-18T00:58:12;23.23;;;9.95;;
24517;SDS011;12678;51.336;12.406;2022-11-18T01:00:44;22.90;;;9.30;;
24517;SDS011;12678;51.336;12.406;2022-11-18T01:05:39;18.75;;;9.52;;
24517;SDS011;12678;51.336;12.406;2022-11-18T01:08:05;15.50;;;8.50;;
24517;SDS011;12678;51.336;12.406;2022-11-18T01:10:33;23.65;;;9.20;;
24517;SDS011;12678;51.336;12.406;2022-11-18T01:12:59;23.17;;;10.85;;
24517;SDS011;12678;51.336;12.406;2022-11-18T01:15:43;21.52;;;10.13;;
24517;SDS011;12678;51.336;12.406;2022-11-18T01:18:09;17.02;;;9.10;;
24517;SDS011;12678;51.336;12.406;2022-11-18T01:20:35;20.98;;;10.55;;
24517;SDS011;12678;51.336;12.406;2022-11-18T01:23:01;20.83;;;9.77;;
24517;SDS011;12678;51.336;12.406;2022-11-18T01:25:27;22.88;;;10.25;;
24517;SDS011;12678;51.336;12.406;2022-11-18T01:27:54;25.00;;;11.25;;
24517;SDS011;12678;51.336;12.406;2022-11-18T01:30:20;18.23;;;9.65;;
24517;SDS011;12678;51.336;12.406;2022-11-18T01:32:45;21.90;;;10.48;;
24517;SDS011;12678;51.336;12.406;2022-11-18T01:35:11;22.35;;;10.30;;
24517;SDS011;12678;51.336;12.406;2022-11-18T01:37:37;21.25;;;10.73;;
24517;SDS011;12678;51.336;12.406;2022-11-18T01:40:03;22.42;;;10.38;;
24517;SDS011;12678;51.336;12.406;2022-11-18T01:42:30;28.50;;;10.88;;
24517;SDS011;12678;51.336;12.406;2022-11-18T01:47:39;25.17;;;11.65;;
24517;SDS011;12678;51.336;12.406;2022-11-18T01:50:09;24.35;;;10.88;;
24517;SDS011;12678;51.336;12.406;2022-11-18T01:52:36;26.35;;;10.88;;
24517;SDS011;12678;51.336;12.406;2022-11-18T01:55:05;27.58;;;11.20;;
24517;SDS011;12678;51.336;12.406;2022-11-18T01:57:35;25.13;;;10.45;;
24517;SDS011;12678;51.336;12.406;2022-11-18T02:00:01;25.40;;;11.30;;
24517;SDS011;12678;51.336;12.406;2022-11-18T02:02:31;28.88;;;11.65;;
24517;SDS011;12678;51.336;12.406;2022-11-18T02:04:59;23.27;;;10.52;;
24517;SDS011;12678;51.336;12.406;2022-11-18T02:07:26;24.38;;;10.23;;
24517;SDS011;12678;51.336;12.406;2022-11-18T02:09:52;28.70;;;11.23;;
24517;SDS011;12678;51.336;12.406;2022-11-18T02:12:22;24.08;;;11.23;;
24517;SDS011;12678;51.336;12.406;2022-11-18T02:14:48;27.13;;;11.23;;
24517;SDS011;12678;51.336;12.406;2022-11-18T02:28:22;21.20;;;10.05;;
24517;SDS011;12678;51.336;12.406;2022-11-18T02:36:23;28.73;;;11.90;;
24517;SDS011;12678;51.336;12.406;2022-11-18T02:39:02;20.15;;;10.10;;
24517;SDS011;12678;51.336;12.406;2022-11-18T02:41:32;28.42;;;11.32;;
24517;SDS011;12678;51.336;12.406;2022-11-18T02:44:05;30.88;;;12.45;;
24517;SDS011;12678;51.336;12.406;2022-11-18T02:46:36;29.02;;;10.43;;
24517;SDS011;12678;51.336;12.406;2022-11-18T02:49:05;31.25;;;10.85;;
24517;SDS011;12678;51.336;12.406;2022-11-18T02:51:36;25.60;;;10.43;;
24517;SDS011;12678;51.336;12.406;2022-11-18T02:54:04;27.98;;;10.27;;
24517;SDS011;12678;51.336;12.406;2022-11-18T02:56:32;26.58;;;10.75;;
24517;SDS011;12678;51.336;12.406;2022-11-18T02:58:59;28.77;;;11.93;;
24517;SDS011;12678;51.336;12.406;2022-11-18T03:01:25;25.25;;;10.60;;
24517;SDS011;12678;51.336;12.406;2022-11-18T03:03:54;28.67;;;11.93;;
24517;SDS011;12678;51.336;12.406;2022-11-18T03:06:28;28.00;;;11.15;;
24517;SDS011;12678;51.336;12.406;2022-11-18T03:11:33;28.55;;;11.80;;
24517;SDS011;12678;51.336;12.406;2022-11-18T03:17:24;22.42;;;9.98;;
24517;SDS011;12678;51.336;12.406;2022-11-18T03:20:06;23.02;;;10.32;;
24517;SDS011;12678;51.336;12.406;2022-11-18T03:22:58;27.63;;;9.82;;
24517;SDS011;12678;51.336;12.406;2022-11-18T03:31:02;21.85;;;9.43;;
24517;SDS011;12678;51.336;12.406;2022-11-18T03:33:44;24.85;;;11.30;;
24517;SDS011;12678;51.336;12.406;2022-11-18T03:36:14;23.30;;;10.10;;
24517;SDS011;12678;51.336;12.406;2022-11-18T03:38:43;23.35;;;11.30;;
24517;SDS011;12678;51.336;12.406;2022-11-18T03:41:13;24.08;;;9.55;;
24517;SDS011;12678;51.336;12.406;2022-11-18T03:43:43;24.70;;;11.48;;
24517;SDS011;12678;51.336;12.406;2022-11-18T03:46:20;17.57;;;7.47;;
24517;SDS011;12678;51.336;12.406;2022-11-18T03:48:50;23.40;;;10.35;;
24517;SDS011;12678;51.336;12.406;2022-11-18T03:51:22;24.50;;;10.23;;
24517;SDS011;12678;51.336;12.406;2022-11-18T03:53:59;27.10;;;11.10;;
24517;SDS011;12678;51.336;12.406;2022-11-18T03:56:33;24.45;;;10.98;;
24517;SDS011;12678;51.336;12.406;2022-11-18T03:59:18;31.00;;;11.68;;
24517;SDS011;12678;51.336;12.406;2022-11-18T04:01:51;25.42;;;10.80;;
24517;SDS011;12678;51.336;12.406;2022-11-18T04:04:20;25.15;;;11.27;;
24517;SDS011;12678;51.336;12.406;2022-11-18T04:06:48;26.67;;;12.05;;
24517;SDS011;12678;51.336;12.406;2022-11-18T04:09:21;22.20;;;9.98;;
24517;SDS011;12678;51.336;12.406;2022-11-18T04:11:54;25.03;;;10.40;;
24517;SDS011;12678;51.336;12.406;2022-11-18T04:14:33;29.20;;;11.57;;
24517;SDS011;12678;51.336;12.406;2022-11-18T04:17:04;25.00;;;10.50;;
24517;SDS011;12678;51.336;12.406;2022-11-18T04:19:34;31.27;;;10.25;;
24517;SDS011;12678;51.336;12.406;2022-11-18T04:22:00;23.67;;;10.88;;
24517;SDS011;12678;51.336;12.406;2022-11-18T04:24:26;31.50;;;12.18;;
24517;SDS011;12678;51.336;12.406;2022-11-18T04:26:51;28.38;;;11.57;;
24517;SDS011;12678;51.336;12.406;2022-11-18T04:29:17;25.88;;;11.13;;
24517;SDS011;12678;51.336;12.406;2022-11-18T04:31:43;32.35;;;12.07;;
24517;SDS011;12678;51.336;12.406;2022-11-18T04:34:08;29.40;;;12.27;;
24517;SDS011;12678;51.336;12.406;2022-11-18T04:36:34;24.42;;;11.25;;
24517;SDS011;12678;51.336;12.406;2022-11-18T04:39:00;25.38;;;10.43;;
24517;SDS011;12678;51.336;12.406;2022-11-18T04:41:26;30.35;;;12.10;;
24517;SDS011;12678;51.336;12.406;2022-11-18T04:44:11;31.60;;;10.43;;
24517;SDS011;12678;51.336;12.406;2022-11-18T04:46:38;24.45;;;10.25;;
24517;SDS011;12678;51.336;12.406;2022-11-18T04:49:05;30.23;;;11.30;;
24517;SDS011;12678;51.336;12.406;2022-11-18T04:51:31;28.25;;;10.43;;
24517;SDS011;12678;51.336;12.406;2022-11-18T04:53:56;28.08;;;11.02;;
24517;SDS011;12678;51.336;12.406;2022-11-18T04:56:22;24.80;;;10.88;;
24517;SDS011;12678;51.336;12.406;2022-11-18T04:58:47;24.05;;;10.27;;
24517;SDS011;12678;51.336;12.406;2022-11-18T05:01:13;27.02;;;10.43;;
24517;SDS011;12678;51.336;12.406;2022-11-18T05:03:39;21.90;;;10.50;;
24517;SDS011;12678;51.336;12.406;2022-11-18T05:06:05;32.63;;;12.15;;
24517;SDS011;12678;51.336;12.406;2022-11-18T05:08:30;27.70;;;11.85;;
24517;SDS011;12678;51.336;12.406;2022-11-18T05:10:56;27.85;;;12.75;;
24517;SDS011;12678;51.336;12.406;2022-11-18T05:13:41;30.45;;;11.02;;
24517;SDS011;12678;51.336;12.406;2022-11-18T05:16:07;32.08;;;11.88;;
24517;SDS011;12678;51.336;12.406;2022-11-18T05:18:32;29.45;;;10.88;;
24517;SDS011;12678;51.336;12.406;2022-11-18T05:20:58;28.05;;;11.60;;
24517;SDS011;12678;51.336;12.406;2022-11-18T05:23:28;26.67;;;9.93;;
24517;SDS011;12678;51.336;12.406;2022-11-18T05:25:54;28.55;;;11.10;;
24517;SDS011;12678;51.336;12.406;2022-11-18T05:28:19;31.08;;;12.60;;
24517;SDS011;12678;51.336;12.406;2022-11-18T05:30:45;25.65;;;10.25;;
24517;SDS011;12678;51.336;12.406;2022-11-18T05:33:10;24.55;;;10.73;;
24517;SDS011;12678;51.336;12.406;2022-11-18T05:35:36;33.92;;;12.07;;
24517;SDS011;12678;51.336;12.406;2022-11-18T05:38:02;27.13;;;11.25;;
24517;SDS011;12678;51.336;12.406;2022-11-18T05:40:28;28.40;;;12.00;;
24517;SDS011;12678;51.336;12.406;2022-11-18T05:42:53;28.85;;;10.65;;
24517;SDS011;12678;51.336;12.406;2022-11-18T05:45:37;28.63;;;10.88;;
24517;SDS011;12678;51.336;12.406;2022-11-18T05:48:04;29.63;;;10.65;;
24517;SDS011;12678;51.336;12.406;2022-11-18T05:50:32;33.63;;;11.43;;
24517;SDS011;12678;51.336;12.406;2022-11-18T05:53:01;29.90;;;9.88;;
24517;SDS011;12678;51.336;12.406;2022-11-18T05:55:50;28.58;;;11.10;;
24517;SDS011;12678;51.336;12.406;2022-11-18T05:58:15;33.47;;;12.40;;
24517;SDS011;12678;51.336;12.406;2022-11-18T06:00:41;30.65;;;10.50;;
24517;SDS011;12678;51.336;12.406;2022-11-18T06:03:08;27.23;;;11.02;;
24517;SDS011;12678;51.336;12.406;2022-11-18T06:05:40;27.30;;;10.52;;
24517;SDS011;12678;51.336;12.406;2022-11-18T06:08:06;33.50;;;10.80;;
24517;SDS011;12678;51.336;12.406;2022-11-18T06:10:34;33.15;;;12.18;;
24517;SDS011;12678;51.336;12.406;2022-11-18T06:13:03;32.85;;;11.77;;
24517;SDS011;12678;51.336;12.406;2022-11-18T06:15:41;31.00;;;10.95;;
24517;SDS011;12678;51.336;12.406;2022-11-18T06:18:10;33.10;;;11.65;;
24517;SDS011;12678;51.336;12.406;2022-11-18T06:20:47;33.47;;;12.30;;
24517;SDS011;12678;51.336;12.406;2022-11-18T06:23:13;41.05;;;13.55;;
24517;SDS011;12678;51.336;12.406;2022-11-18T06:25:39;33.42;;;11.70;;
24517;SDS011;12678;51.336;12.406;2022-11-18T06:28:05;34.63;;;12.02;;
24517;SDS011;12678;51.336;12.406;2022-11-18T06:30:34;32.03;;;11.65;;
24517;SDS011;12678;51.336;12.406;2022-11-18T06:33:00;27.05;;;11.02;;
24517;SDS011;12678;51.336;12.406;2022-11-18T06:35:27;30.67;;;10.95;;
24517;SDS011;12678;51.336;12.406;2022-11-18T06:37:52;34.63;;;11.55;;
24517;SDS011;12678;51.336;12.406;2022-11-18T06:40:18;34.17;;;11.85;;
24517;SDS011;12678;51.336;12.406;2022-11-18T06:42:44;29.50;;;11.50;;
24517;SDS011;12678;51.336;12.406;2022-11-18T06:45:28;28.85;;;12.23;;
24517;SDS011;12678;51.336;12.406;2022-11-18T06:47:58;37.28;;;11.65;;
24517;SDS011;12678;51.336;12.406;2022-11-18T06:50:25;28.80;;;11.93;;
24517;SDS011;12678;51.336;12.406;2022-11-18T06:52:51;35.20;;;12.02;;
24517;SDS011;12678;51.336;12.406;2022-11-18T06:55:17;36.10;;;11.90;;
24517;SDS011;12678;51.336;12.406;2022-11-18T06:57:43;32.80;;;13.32;;
24517;SDS011;12678;51.336;12.406;2022-11-18T07:00:09;38.15;;;11.25;;
24517;SDS011;12678;51.336;12.406;2022-11-18T07:02:35;36.15;;;12.27;;
24517;SDS011;12678;51.336;12.406;2022-11-18T07:05:02;35.13;;;12.45;;
24517;SDS011;12678;51.336;12.406;2022-11-18T07:07:28;27.77;;;10.88;;
24517;SDS011;12678;51.336;12.406;2022-11-18T07:09:54;35.38;;;13.10;;
24517;SDS011;12678;51.336;12.406;2022-11-18T07:12:20;28.38;;;11.48;;
24517;SDS011;12678;51.336;12.406;2022-11-18T07:14:46;30.10;;;11.15;;
24517;SDS011;12678;51.336;12.406;2022-11-18T07:17:11;29.17;;;11.60;;
24517;SDS011;12678;51.336;12.406;2022-11-18T07:19:38;32.75;;;11.52;;
24517;SDS011;12678;51.336;12.406;2022-11-18T07:22:04;34.22;;;11.15;;
24517;SDS011;12678;51.336;12.406;2022-11-18T07:24:32;27.30;;;11.90;;
24517;SDS011;12678;51.336;12.406;2022-11-18T07:26:58;27.15;;;11.27;;
24517;SDS011;12678;51.336;12.406;2022-11-18T07:29:24;35.40;;;11.88;;
24517;SDS011;12678;51.336;12.406;2022-11-18T07:31:50;35.50;;;12.55;;
24517;SDS011;12678;51.336;12.406;2022-11-18T07:34:15;33.20;;;12.93;;
24517;SDS011;12678;51.336;12.406;2022-11-18T07:36:41;43.40;;;13.77;;
24517;SDS011;12678;51.336;12.406;2022-11-18T07:39:07;31.95;;;10.93;;
24517;SDS011;12678;51.336;12.406;2022-11-18T07:41:33;30.80;;;12.75;;
24517;SDS011;12678;51.336;12.406;2022-11-18T07:44:00;26.70;;;11.95;;
24517;SDS011;12678;51.336;12.406;2022-11-18T07:46:31;34.53;;;12.73;;
24517;SDS011;12678;51.336;12.406;2022-11-18T07:48:59;42.33;;;12.20;;
24517;SDS011;12678;51.336;12.406;2022-11-18T07:51:27;27.05;;;10.60;;
24517;SDS011;12678;51.336;12.406;2022-11-18T07:53:54;36.30;;;13.02;;
24517;SDS011;12678;51.336;12.406;2022-11-18T07:56:20;30.73;;;12.65;;
24517;SDS011;12678;51.336;12.406;2022-11-18T07:58:50;38.58;;;13.07;;
24517;SDS011;12678;51.336;12.406;2022-11-18T08:01:20;31.50;;;11.50;;
24517;SDS011;12678;51.336;12.406;2022-11-18T08:03:48;29.70;;;11.75;;
24517;SDS011;12678;51.336;12.406;2022-11-18T08:06:16;30.50;;;11.77;;
24517;SDS011;12678;51.336;12.406;2022-11-18T08:08:43;31.67;;;11.10;;
24517;SDS011;12678;51.336;12.406;2022-11-18T08:11:09;32.33;;;12.60;;
24517;SDS011;12678;51.336;12.406;2022-11-18T08:13:37;40.83;;;11.50;;
24517;SDS011;12678;51.336;12.406;2022-11-18T08:16:03;36.80;;;12.82;;
24517;SDS011;12678;51.336;12.406;2022-11-18T08:18:35;38.85;;;12.50;;
24517;SDS011;12678;51.336;12.406;2022-11-18T08:21:02;44.53;;;13.07;;
24517;SDS011;12678;51.336;12.406;2022-11-18T08:23:28;34.70;;;12.93;;
24517;SDS011;12678;51.336;12.406;2022-11-18T08:25:59;40.67;;;13.10;;
24517;SDS011;12678;51.336;12.406;2022-11-18T08:28:36;34.92;;;13.65;;
24517;SDS011;12678;51.336;12.406;2022-11-18T08:31:11;38.58;;;13.35;;
24517;SDS011;12678;51.336;12.406;2022-11-18T08:33:39;36.78;;;14.20;;
24517;SDS011;12678;51.336;12.406;2022-11-18T08:36:10;35.28;;;12.80;;
24517;SDS011;12678;51.336;12.406;2022-11-18T08:38:39;34.30;;;12.40;;
24517;SDS011;12678;51.336;12.406;2022-11-18T08:41:04;42.33;;;13.07;;
24517;SDS011;12678;51.336;12.406;2022-11-18T08:43:33;36.50;;;13.30;;
24517;SDS011;12678;51.336;12.406;2022-11-18T08:46:00;35.28;;;12.40;;
24517;SDS011;12678;51.336;12.406;2022-11-18T08:48:25;40.70;;;12.35;;
24517;SDS011;12678;51.336;12.406;2022-11-18T08:50:51;31.25;;;12.63;;
24517;SDS011;12678;51.336;12.406;2022-11-18T08:53:21;35.88;;;13.93;;
24517;SDS011;12678;51.336;12.406;2022-11-18T08:55:53;43.00;;;12.68;;
24517;SDS011;12678;51.336;12.406;2022-11-18T08:58:19;39.88;;;14.48;;
24517;SDS011;12678;51.336;12.406;2022-11-18T09:00:45;47.08;;;14.93;;
24517;SDS011;12678;51.336;12.406;2022-11-18T09:03:11;39.00;;;13.05;;
24517;SDS011;12678;51.336;12.406;2022-11-18T09:05:36;36.03;;;12.65;;
24517;SDS011;12678;51.336;12.406;2022-11-18T09:08:02;38.58;;;12.43;;
24517;SDS011;12678;51.336;12.406;2022-11-18T09:10:29;37.75;;;14.20;;
24517;SDS011;12678;51.336;12.406;2022-11-18T09:12:54;38.10;;;13.43;;
24517;SDS011;12678;51.336;12.406;2022-11-18T09:15:20;32.03;;;11.98;;
24517;SDS011;12678;51.336;12.406;2022-11-18T09:17:48;32.47;;;14.10;;
24517;SDS011;12678;51.336;12.406;2022-11-18T09:20:15;38.65;;;11.55;;
24517;SDS011;12678;51.336;12.406;2022-11-18T09:22:41;38.85;;;13.95;;
24517;SDS011;12678;51.336;12.406;2022-11-18T09:25:08;42.30;;;13.27;;
24517;SDS011;12678;51.336;12.406;2022-11-18T09:27:34;38.50;;;13.30;;
24517;SDS011;12678;51.336;12.406;2022-11-18T09:30:00;33.90;;;13.27;;
24517;SDS011;12678;51.336;12.406;2022-11-18T09:32:25;44.88;;;14.68;;
24517;SDS011;12678;51.336;12.406;2022-11-18T09:34:51;50.08;;;15.65;;
24517;SDS011;12678;51.336;12.406;2022-11-18T09:37:17;47.45;;;13.98;;
24517;SDS011;12678;51.336;12.406;2022-11-18T09:39:43;33.67;;;12.75;;
24517;SDS011;12678;51.336;12.406;2022-11-18T09:42:30;46.92;;;14.00;;
24517;SDS011;12678;51.336;12.406;2022-11-18T09:45:24;32.33;;;12.80;;
24517;SDS011;12678;51.336;12.406;2022-11-18T09:47:56;39.85;;;14.82;;
24517;SDS011;12678;51.336;12.406;2022-11-18T09:50:22;41.17;;;13.75;;
24517;SDS011;12678;51.336;12.406;2022-11-18T09:55:33;45.05;;;15.48;;
24517;SDS011;12678;51.336;12.406;2022-11-18T09:58:11;32.65;;;12.50;;
24517;SDS011;12678;51.336;12.406;2022-11-18T10:00:42;33.85;;;13.13;;
24517;SDS011;12678;51.336;12.406;2022-11-18T10:03:27;40.15;;;14.20;;
24517;SDS011;12678;51.336;12.406;2022-11-18T10:22:57;32.67;;;12.65;;
24517;SDS011;12678;51.336;12.406;2022-11-18T10:25:33;33.63;;;12.18;;
24517;SDS011;12678;51.336;12.406;2022-11-18T10:28:05;33.63;;;12.40;;
24517;SDS011;12678;51.336;12.406;2022-11-18T10:30:48;38.38;;;12.23;;
24517;SDS011;12678;51.336;12.406;2022-11-18T10:35:46;36.38;;;11.82;;
24517;SDS011;12678;51.336;12.406;2022-11-18T10:38:18;37.00;;;12.43;;
24517;SDS011;12678;51.336;12.406;2022-11-18T10:46:30;34.55;;;12.07;;
24517;SDS011;12678;51.336;12.406;2022-11-18T10:51:35;28.70;;;10.45;;
24517;SDS011;12678;51.336;12.406;2022-11-18T10:54:16;28.83;;;10.65;;
24517;SDS011;12678;51.336;12.406;2022-11-18T10:56:44;29.70;;;11.02;;
24517;SDS011;12678;51.336;12.406;2022-11-18T11:01:57;25.75;;;9.23;;
24517;SDS011;12678;51.336;12.406;2022-11-18T11:04:26;22.77;;;8.77;;
24517;SDS011;12678;51.336;12.406;2022-11-18T11:06:53;21.25;;;8.07;;
24517;SDS011;12678;51.336;12.406;2022-11-18T11:09:25;23.55;;;9.02;;
24517;SDS011;12678;51.336;12.406;2022-11-18T11:14:51;20.10;;;7.88;;
24517;SDS011;12678;51.336;12.406;2022-11-18T11:17:27;27.25;;;9.48;;
24517;SDS011;12678;51.336;12.406;2022-11-18T11:22:39;20.95;;;7.60;;
24517;SDS011;12678;51.336;12.406;2022-11-18T11:28:08;15.38;;;6.72;;
24517;SDS011;12678;51.336;12.406;2022-11-18T11:30:53;17.85;;;8.07;;
24517;SDS011;12678;51.336;12.406;2022-11-18T11:36:13;17.90;;;7.93;;
24517;SDS011;12678;51.336;12.406;2022-11-18T11:38:58;18.05;;;6.68;;
24517;SDS011;12678;51.336;12.406;2022-11-18T11:41:38;14.75;;;6.55;;
24517;SDS011;12678;51.336;12.406;2022-11-18T11:44:31;18.20;;;6.72;;
24517;SDS011;12678;51.336;12.406;2022-11-18T12:01:07;15.15;;;5.18;;
24517;SDS011;12678;51.336;12.406;2022-11-18T12:03:44;12.50;;;6.00;;
24517;SDS011;12678;51.336;12.406;2022-11-18T12:06:12;14.88;;;5.68;;
24517;SDS011;12678;51.336;12.406;2022-11-18T12:08:42;16.17;;;6.88;;
24517;SDS011;12678;51.336;12.406;2022-11-18T12:11:28;15.80;;;5.93;;
24517;SDS011;12678;51.336;12.406;2022-11-18T12:16:47;13.18;;;6.30;;
24517;SDS011;12678;51.336;12.406;2022-11-18T12:19:27;13.63;;;6.20;;
24517;SDS011;12678;51.336;12.406;2022-11-18T12:21:55;19.73;;;6.25;;
24517;SDS011;12678;51.336;12.406;2022-11-18T12:27:01;16.17;;;6.30;;
24517;SDS011;12678;51.336;12.406;2022-11-18T12:29:42;16.57;;;7.13;;
24517;SDS011;12678;51.336;12.406;2022-11-18T12:32:28;18.00;;;7.05;;
24517;SDS011;12678;51.336;12.406;2022-11-18T12:39:57;15.32;;;6.97;;
24517;SDS011;12678;51.336;12.406;2022-11-18T12:42:34;19.35;;;7.55;;
24517;SDS011;12678;51.336;12.406;2022-11-18T12:53:39;22.42;;;7.63;;
24517;SDS011;12678;51.336;12.406;2022-11-18T12:58:58;22.77;;;10.52;;
24517;SDS011;12678;51.336;12.406;2022-11-18T13:01:28;23.63;;;9.98;;
24517;SDS011;12678;51.336;12.406;2022-11-18T13:06:44;22.55;;;10.23;;
24517;SDS011;12678;51.336;12.406;2022-11-18T13:09:17;27.10;;;11.38;;
24517;SDS011;12678;51.336;12.406;2022-11-18T13:11:51;28.30;;;11.95;;
24517;SDS011;12678;51.336;12.406;2022-11-18T13:14:27;26.20;;;9.98;;
24517;SDS011;12678;51.336;12.406;2022-11-18T13:17:28;27.77;;;11.45;;
24517;SDS011;12678;51.336;12.406;2022-11-18T13:20:23;30.58;;;11.20;;
24517;SDS011;12678;51.336;12.406;2022-11-18T13:25:48;23.23;;;9.95;;
24517;SDS011;12678;51.336;12.406;2022-11-18T13:31:01;29.27;;;11.45;;
24517;SDS011;12678;51.336;12.406;2022-11-18T13:33:37;25.45;;;10.13;;
24517;SDS011;12678;51.336;12.406;2022-11-18T13:36:23;32.08;;;12.00;;
24517;SDS011;12678;51.336;12.406;2022-11-18T13:39:01;23.92;;;10.43;;
24517;SDS011;12678;51.336;12.406;2022-11-18T13:41:30;24.10;;;10.98;;
24517;SDS011;12678;51.336;12.406;2022-11-18T13:44:11;30.63;;;12.43;;
24517;SDS011;12678;51.336;12.406;2022-11-18T13:46:46;29.35;;;11.90;;
24517;SDS011;12678;51.336;12.406;2022-11-18T13:49:17;18.40;;;8.67;;
24517;SDS011;12678;51.336;12.406;2022-11-18T13:51:46;28.33;;;11.80;;
24517;SDS011;12678;51.336;12.406;2022-11-18T13:54:14;29.70;;;11.80;;
24517;SDS011;12678;51.336;12.406;2022-11-18T13:59:14;28.00;;;12.18;;
24517;SDS011;12678;51.336;12.406;2022-11-18T14:01:44;29.02;;;11.73;;
24517;SDS011;12678;51.336;12.406;2022-11-18T14:04:28;32.42;;;12.95;;
24517;SDS011;12678;51.336;12.406;2022-11-18T14:09:53;28.70;;;13.30;;
24517;SDS011;12678;51.336;12.406;2022-11-18T14:12:25;26.92;;;12.32;;
24517;SDS011;12678;51.336;12.406;2022-11-18T14:17:58;40.03;;;14.50;;
24517;SDS011;12678;51.336;12.406;2022-11-18T14:20:26;30.55;;;12.90;;
24517;SDS011;12678;51.336;12.406;2022-11-18T14:22:54;36.33;;;15.23;;
24517;SDS011;12678;51.336;12.406;2022-11-18T14:25:31;33.42;;;13.68;;
24517;SDS011;12678;51.336;12.406;2022-11-18T14:33:23;35.60;;;13.75;;
24517;SDS011;12678;51.336;12.406;2022-11-18T14:35:53;32.10;;;12.90;;
24517;SDS011;12678;51.336;12.406;2022-11-18T14:41:10;41.88;;;15.30;;
24517;SDS011;12678;51.336;12.406;2022-11-18T14:43:37;28.65;;;13.00;;
24517;SDS011;12678;51.336;12.406;2022-11-18T14:46:11;32.67;;;13.13;;
24517;SDS011;12678;51.336;12.406;2022-11-18T14:48:42;30.65;;;12.10;;
24517;SDS011;12678;51.336;12.406;2022-11-18T14:51:11;39.22;;;14.05;;
24517;SDS011;12678;51.336;12.406;2022-11-18T14:53:40;35.80;;;13.52;;
24517;SDS011;12678;51.336;12.406;2022-11-18T14:56:17;33.28;;;13.75;;
24517;SDS011;12678;51.336;12.406;2022-11-18T14:58:47;29.40;;;12.77;;
24517;SDS011;12678;51.336;12.406;2022-11-18T15:01:13;40.08;;;13.23;;
24517;SDS011;12678;51.336;12.406;2022-11-18T15:03:39;34.28;;;13.27;;
24517;SDS011;12678;51.336;12.406;2022-11-18T15:06:11;33.28;;;13.00;;
24517;SDS011;12678;51.336;12.406;2022-11-18T15:08:38;33.78;;;14.20;;
24517;SDS011;12678;51.336;12.406;2022-11-18T15:11:03;35.80;;;13.23;;
24517;SDS011;12678;51.336;12.406;2022-11-18T15:13:29;44.72;;;14.82;;
24517;SDS011;12678;51.336;12.406;2022-11-18T15:15:55;36.22;;;13.30;;
24517;SDS011;12678;51.336;12.406;2022-11-18T15:18:20;36.78;;;15.48;;
24517;SDS011;12678;51.336;12.406;2022-11-18T15:20:49;31.85;;;13.55;;
24517;SDS011;12678;51.336;12.406;2022-11-18T15:23:17;32.22;;;13.93;;
24517;SDS011;12678;51.336;12.406;2022-11-18T15:25:43;30.00;;;13.57;;
24517;SDS011;12678;51.336;12.406;2022-11-18T15:28:09;46.92;;;13.70;;
24517;SDS011;12678;51.336;12.406;2022-11-18T15:30:34;31.92;;;14.70;;
24517;SDS011;12678;51.336;12.406;2022-11-18T15:33:02;27.80;;;12.05;;
24517;SDS011;12678;51.336;12.406;2022-11-18T15:35:27;34.10;;;13.80;;
24517;SDS011;12678;51.336;12.406;2022-11-18T15:37:53;29.65;;;12.60;;
24517;SDS011;12678;51.336;12.406;2022-11-18T15:40:19;29.27;;;12.55;;
24517;SDS011;12678;51.336;12.406;2022-11-18T15:42:44;29.00;;;12.43;;
24517;SDS011;12678;51.336;12.406;2022-11-18T15:45:10;32.20;;;13.30;;
24517;SDS011;12678;51.336;12.406;2022-11-18T15:47:35;27.88;;;12.63;;
24517;SDS011;12678;51.336;12.406;2022-11-18T15:50:01;26.13;;;11.95;;
24517;SDS011;12678;51.336;12.406;2022-11-18T15:52:27;31.77;;;13.55;;
24517;SDS011;12678;51.336;12.406;2022-11-18T15:54:53;29.65;;;13.13;;
24517;SDS011;12678;51.336;12.406;2022-11-18T15:57:19;31.52;;;12.93;;
24517;SDS011;12678;51.336;12.406;2022-11-18T15:59:45;32.03;;;13.23;;
24517;SDS011;12678;51.336;12.406;2022-11-18T16:02:11;41.95;;;13.73;;
24517;SDS011;12678;51.336;12.406;2022-11-18T16:04:36;37.70;;;13.93;;
24517;SDS011;12678;51.336;12.406;2022-11-18T16:07:02;29.02;;;12.00;;
24517;SDS011;12678;51.336;12.406;2022-11-18T16:09:28;31.63;;;12.05;;
24517;SDS011;12678;51.336;12.406;2022-11-18T16:12:14;24.15;;;10.65;;
24517;SDS011;12678;51.336;12.406;2022-11-18T16:14:59;30.65;;;12.70;;
24517;SDS011;12678;51.336;12.406;2022-11-18T16:17:43;29.83;;;12.43;;
24517;SDS011;12678;51.336;12.406;2022-11-18T16:20:08;28.02;;;11.93;;
24517;SDS011;12678;51.336;12.406;2022-11-18T16:22:34;30.27;;;13.75;;
24517;SDS011;12678;51.336;12.406;2022-11-18T16:25:00;32.70;;;12.95;;
24517;SDS011;12678;51.336;12.406;2022-11-18T16:27:26;25.17;;;11.48;;
24517;SDS011;12678;51.336;12.406;2022-11-18T16:29:51;33.67;;;13.70;;
24517;SDS011;12678;51.336;12.406;2022-11-18T16:32:17;29.27;;;11.93;;
24517;SDS011;12678;51.336;12.406;2022-11-18T16:34:42;31.45;;;12.80;;
24517;SDS011;12678;51.336;12.406;2022-11-18T16:37:08;36.90;;;14.98;;
24517;SDS011;12678;51.336;12.406;2022-11-18T16:39:34;39.72;;;12.57;;
24517;SDS011;12678;51.336;12.406;2022-11-18T16:42:00;31.02;;;13.30;;
24517;SDS011;12678;51.336;12.406;2022-11-18T16:44:26;30.48;;;13.18;;